Latest Weather Observations for St Kilda Harbour RMYS

IDV60801

Issued at 12:42 am EST Saturday 17 April 2021 (issued every 10 minutes, with the page automatically refreshed every 10 minutes)

About weather observations | Map of weather stations | Latest weather observations for VIC | Other Formats
Station Details ID: 086220 Name: ST KILDA HARBOUR - RMYS Lat: -37.86 Lon: 144.96 Height: 6.4 m
Data from the previous 72 hours. | See also: Recent months at St Kilda Harbour RMYS
Date/Time
EST
Temp
°C
App
Temp
°C
Dew
Point
°C
Rel
Hum
%
Delta-T
°C
Wind Press
QNH
hPa
Press
MSL
hPa
Rain since
9am
mm
Dir  Spd
km/h
Gust
km/h
Spd
kts
Gust
kts
17/12:30am - - - - - WSW 28 33 15 18 - - -
17/12:00am - - - - - SW 22 28 12 15 - - -
 
Date/Time
EST
Temp
°C
App
Temp
°C
Dew
Point
°C
Rel
Hum
%
Delta-T
°C
Wind Press
QNH
hPa
Press
MSL
hPa
Rain since
9am
mm
Dir  Spd
km/h
Gust
km/h
Spd
kts
Gust
kts
16/11:30pm - - - - - S 7 19 4 10 - - -
16/11:00pm - - - - - ESE 6 9 3 5 - - -
16/10:30pm - - - - - SW 17 22 9 12 - - -
16/10:00pm - - - - - SSE 9 19 5 10 - - -
16/09:30pm - - - - - SW 22 26 12 14 - - -
16/09:00pm - - - - - SSW 17 24 9 13 - - -
16/08:30pm - - - - - S 17 22 9 12 - - -
16/08:00pm - - - - - SSE 9 17 5 9 - - -
16/07:30pm - - - - - SSE 11 19 6 10 - - -
16/07:00pm - - - - - S 15 20 8 11 - - -
16/06:30pm - - - - - S 19 22 10 12 - - -
16/06:00pm - - - - - S 15 24 8 13 - - -
16/05:30pm - - - - - S 19 24 10 13 - - -
16/05:00pm - - - - - SSW 11 15 6 8 - - -
16/04:30pm - - - - - SSW 15 20 8 11 - - -
16/04:00pm - - - - - SW 13 19 7 10 - - -
16/03:30pm - - - - - SSW 13 17 7 9 - - -
16/03:00pm - - - - - SW 19 20 10 11 - - -
16/02:30pm - - - - - SW 19 24 10 13 - - -
16/02:00pm - - - - - SW 22 28 12 15 - - -
16/01:30pm - - - - - SSW 17 20 9 11 - - -
16/01:00pm - - - - - SW 19 24 10 13 - - -
16/12:30pm - - - - - SW 24 28 13 15 - - -
16/12:00pm - - - - - SSW 22 28 12 15 - - -
16/11:30am - - - - - SW 20 28 11 15 - - -
16/11:00am - - - - - SW 26 33 14 18 - - -
16/10:30am - - - - - SW 28 37 15 20 - - -
16/10:00am - - - - - SW 28 32 15 17 - - -
16/09:30am - - - - - WSW 30 33 16 18 - - -
16/09:00am - - - - - WSW 20 24 11 13 - - -
16/08:30am - - - - - W 19 24 10 13 - - -
16/08:00am - - - - - W 22 28 12 15 - - -
16/07:30am - - - - - WSW 22 28 12 15 - - -
16/07:00am - - - - - WSW 30 33 16 18 - - -
16/06:30am - - - - - WSW 26 33 14 18 - - -
16/06:00am - - - - - WSW 24 30 13 16 - - -
16/05:30am - - - - - WSW 28 32 15 17 - - -
16/05:00am - - - - - WSW 20 28 11 15 - - -
16/04:30am - - - - - WSW 22 30 12 16 - - -
16/04:00am - - - - - SW 30 39 16 21 - - -
16/03:43am - - - - - SW 32 52 17 28 - - -
16/03:30am - - - - - WSW 26 32 14 17 - - -
16/03:00am - - - - - WSW 28 33 15 18 - - -
16/02:30am - - - - - W 20 28 11 15 - - -
16/02:00am - - - - - W 22 28 12 15 - - -
16/01:30am - - - - - WSW 26 32 14 17 - - -
16/01:00am - - - - - WSW 28 33 15 18 - - -
16/12:30am - - - - - WSW 32 35 17 19 - - -
16/12:00am - - - - - WSW 24 30 13 16 - - -
 
Date/Time
EST
Temp
°C
App
Temp
°C
Dew
Point
°C
Rel
Hum
%
Delta-T
°C
Wind Press
QNH
hPa
Press
MSL
hPa
Rain since
9am
mm
Dir  Spd
km/h
Gust
km/h
Spd
kts
Gust
kts
15/11:30pm - - - - - WSW 30 33 16 18 - - -
15/11:00pm - - - - - WSW 26 32 14 17 - - -
15/10:30pm - - - - - WSW 30 35 16 19 - - -
15/10:00pm - - - - - WSW 24 32 13 17 - - -
15/09:30pm - - - - - W 24 30 13 16 - - -
15/09:00pm - - - - - W 33 43 18 23 - - -
15/08:45pm - - - - - WSW 32 48 17 26 - - -
15/08:30pm - - - - - W 24 28 13 15 - - -
15/08:00pm - - - - - W 26 33 14 18 - - -
15/07:30pm - - - - - W 24 30 13 16 - - -
15/07:00pm - - - - - WSW 33 41 18 22 - - -
15/06:30pm - - - - - W 30 37 16 20 - - -
15/06:00pm - - - - - W 33 41 18 22 - - -
15/05:30pm - - - - - WNW 24 33 13 18 - - -
15/05:00pm - - - - - WNW 24 37 13 20 - - -
15/04:30pm - - - - - WNW 26 35 14 19 - - -
15/04:00pm - - - - - W 17 20 9 11 - - -
15/03:30pm - - - - - WSW 22 30 12 16 - - -
15/03:00pm - - - - - WSW 22 30 12 16 - - -
15/02:31pm - - - - - WSW 54 74 29 40 - - -
15/02:30pm - - - - - WSW 56 74 30 40 - - -
15/02:22pm - - - - - W 37 72 20 39 - - -
15/02:20pm - - - - - W 32 57 17 31 - - -
15/02:00pm - - - - - WNW 32 41 17 22 - - -
15/01:30pm - - - - - W 32 37 17 20 - - -
15/01:00pm - - - - - W 32 39 17 21 - - -
15/12:30pm - - - - - WNW 43 52 23 28 - - -
15/12:00pm - - - - - W 35 44 19 24 - - -
15/11:30am - - - - - W 33 50 18 27 - - -
15/11:00am - - - - - W 37 46 20 25 - - -
15/10:58am - - - - - W 37 46 20 25 - - -
15/10:30am - - - - - WNW 33 43 18 23 - - -
15/10:00am - - - - - WNW 33 41 18 22 - - -
15/09:30am - - - - - WNW 33 46 18 25 - - -
15/09:23am - - - - - WNW 28 46 15 25 - - -
15/09:00am - - - - - WNW 24 33 13 18 - - -
15/08:30am - - - - - NW 28 37 15 20 - - -
15/08:00am - - - - - NW 22 28 12 15 - - -
15/07:30am - - - - - NW 20 30 11 16 - - -
15/07:00am - - - - - NW 24 30 13 16 - - -
15/06:30am - - - - - NW 20 26 11 14 - - -
15/06:00am - - - - - NNW 15 20 8 11 - - -
15/05:30am - - - - - NNW 17 20 9 11 - - -
15/05:00am - - - - - NNW 17 20 9 11 - - -
15/04:30am - - - - - NNW 17 20 9 11 - - -
15/04:00am - - - - - NNW 17 19 9 10 - - -
15/03:30am - - - - - NW 19 22 10 12 - - -
15/03:00am - - - - - NW 17 20 9 11 - - -
15/02:30am - - - - - NW 15 20 8 11 - - -
15/02:00am - - - - - NW 13 17 7 9 - - -
15/01:30am - - - - - WNW 20 24 11 13 - - -
15/01:00am - - - - - WNW 22 28 12 15 - - -
15/12:30am - - - - - WNW 22 28 12 15 - - -
15/12:00am - - - - - WNW 22 26 12 14 - - -
 
Date/Time
EST
Temp
°C
App
Temp
°C
Dew
Point
°C
Rel
Hum
%
Delta-T
°C
Wind Press
QNH
hPa
Press
MSL
hPa
Rain since
9am
mm
Dir  Spd
km/h
Gust
km/h
Spd
kts
Gust
kts
14/11:30pm - - - - - WNW 24 30 13 16 - - -
14/11:00pm - - - - - WNW 24 32 13 17 - - -
14/10:30pm - - - - - WNW 22 30 12 16 - - -
14/10:00pm - - - - - WNW 24 30 13 16 - - -
14/09:30pm - - - - - WNW 24 37 13 20 - - -
14/09:00pm - - - - - W 24 28 13 15 - - -
14/08:30pm - - - - - WSW 30 35 16 19 - - -
14/08:00pm - - - - - WSW 37 48 20 26 - - -
14/07:30pm - - - - - W 22 28 12 15 - - -
14/07:00pm - - - - - W 26 33 14 18 - - -
14/06:30pm - - - - - WSW 26 32 14 17 - - -
14/06:00pm - - - - - WSW 30 37 16 20 - - -
14/05:30pm - - - - - WSW 39 50 21 27 - - -
14/05:15pm - - - - - WSW 33 56 18 30 - - -
14/05:00pm - - - - - WSW 26 30 14 16 - - -
14/04:30pm - - - - - WSW 33 43 18 23 - - -
14/04:00pm - - - - - WNW 32 41 17 22 - - -
14/03:30pm - - - - - WSW 26 32 14 17 - - -
14/03:00pm - - - - - WSW 30 48 16 26 - - -
14/02:30pm - - - - - WNW 32 39 17 21 - - -
14/02:00pm - - - - - W 39 50 21 27 - - -
14/01:30pm - - - - - W 39 50 21 27 - - -
14/01:00pm - - - - - W 41 48 22 26 - - -
14/12:30pm - - - - - WNW 39 52 21 28 - - -
14/12:00pm - - - - - W 39 52 21 28 - - -
14/11:30am - - - - - W 41 52 22 28 - - -
14/11:19am - - - - - W 30 48 16 26 - - -
14/11:00am - - - - - WNW 37 48 20 26 - - -
14/10:30am - - - - - WNW 37 46 20 25 - - -
14/10:00am - - - - - WNW 30 43 16 23 - - -
14/09:30am - - - - - WNW 30 39 16 21 - - -
14/09:00am - - - - - WNW 24 33 13 18 - - -
14/08:30am - - - - - NW 20 28 11 15 - - -
14/08:00am - - - - - NW 24 32 13 17 - - -
14/07:30am - - - - - NW 28 35 15 19 - - -
14/07:00am - - - - - W 41 50 22 27 - - -
14/06:30am - - - - - W 33 46 18 25 - - -
14/06:00am - - - - - WSW 41 50 22 27 - - -
14/05:42am - - - - - WNW 32 48 17 26 - - -
14/05:30am - - - - - NNW 33 43 18 23 - - -
14/05:17am - - - - - NNW 32 46 17 25 - - -
14/05:00am - - - - - NNW 19 26 10 14 - - -
14/04:30am - - - - - NNW 20 26 11 14 - - -
14/04:00am - - - - - NNE 11 20 6 11 - - -
14/03:30am - - - - - N 15 24 8 13 - - -
14/03:00am - - - - - NNE 22 35 12 19 - - -
14/02:30am - - - - - N 26 44 14 24 - - -
14/02:00am - - - - - N 32 48 17 26 - - -
14/01:30am - - - - - N 33 54 18 29 - - -
14/01:00am - - - - - N 28 50 15 27 - - -
14/12:52am - - - - - N 30 50 16 27 - - -

Other formats

Comma delimited format used in spreadsheet applications
http://www.bom.gov.au/fwo/IDV60801/IDV60801.95864.axf

JavaScript Object Notation format (JSON) in row-major order
http://www.bom.gov.au/fwo/IDV60801/IDV60801.95864.json

Data quality

Most of these data are generated automatically and are frequently updated. Quality checks on data are not normally performed. It is possible for incorrect values to appear. Refer to information at About Latest Weather Observations and please check the disclaimer before using these data.